createdAt,value
2023-02-19T00:00:16.934Z,87.9
2023-02-19T00:01:17.432Z,87.8
2023-02-19T00:02:17.322Z,88.0
2023-02-19T00:03:16.854Z,88.0
2023-02-19T00:04:17.372Z,88.0
2023-02-19T00:05:16.861Z,88.1
2023-02-19T00:06:17.437Z,88.1
2023-02-19T00:07:16.925Z,88.2
2023-02-19T00:08:17.448Z,88.4
2023-02-19T00:09:17.137Z,88.4
2023-02-19T00:10:16.629Z,88.5
2023-02-19T00:11:17.138Z,88.5
2023-02-19T00:12:16.695Z,88.7
2023-02-19T00:13:17.228Z,88.8
2023-02-19T00:14:16.714Z,88.8
2023-02-19T00:15:17.212Z,89.0
2023-02-19T00:16:16.751Z,89.0
2023-02-19T00:17:17.282Z,89.2
2023-02-19T00:18:16.778Z,89.2
2023-02-19T00:19:17.266Z,89.5
2023-02-19T00:20:16.764Z,89.4
2023-02-19T00:21:17.247Z,89.5
2023-02-19T00:22:16.655Z,89.7
2023-02-19T00:23:17.148Z,89.7
2023-02-19T00:24:16.648Z,89.7
2023-02-19T00:25:17.135Z,89.8
2023-02-19T00:26:19.101Z,89.8
2023-02-19T00:27:16.576Z,89.9
2023-02-19T00:28:17.125Z,90.0
2023-02-19T00:29:16.622Z,90.0
2023-02-19T00:30:17.169Z,90.0
2023-02-19T00:31:16.997Z,90.1
2023-02-19T00:32:17.410Z,90.1
2023-02-19T00:33:16.941Z,90.2
2023-02-19T00:34:17.474Z,90.3
2023-02-19T00:35:16.991Z,90.3
2023-02-19T00:36:16.478Z,90.3
2023-02-19T00:37:16.973Z,90.3
2023-02-19T00:38:16.495Z,90.3
2023-02-19T00:39:16.984Z,90.3
2023-02-19T00:40:16.473Z,90.3
2023-02-19T00:41:16.988Z,90.4
2023-02-19T00:42:17.313Z,90.4
2023-02-19T00:43:16.783Z,90.4
2023-02-19T00:44:17.326Z,90.5
2023-02-19T00:45:16.851Z,90.5
2023-02-19T00:46:17.579Z,90.6
2023-02-19T00:47:17.160Z,90.6
2023-02-19T00:48:16.678Z,90.7
2023-02-19T00:49:17.201Z,90.7
2023-02-19T00:50:16.710Z,90.7
2023-02-19T00:51:17.219Z,90.9
2023-02-19T00:52:17.002Z,90.9
2023-02-19T00:53:16.482Z,91.0
2023-02-19T00:54:17.004Z,91.0
2023-02-19T00:55:16.489Z,91.2
2023-02-19T00:56:17.015Z,91.3
2023-02-19T00:57:16.498Z,91.4
2023-02-19T00:58:16.999Z,91.6
2023-02-19T00:59:16.515Z,91.6
2023-02-19T01:00:17.005Z,91.8
2023-02-19T01:01:16.646Z,92.1
2023-02-19T01:02:17.352Z,92.2
2023-02-19T01:03:16.853Z,92.3
2023-02-19T01:04:17.359Z,92.7
2023-02-19T01:05:16.898Z,93.1
2023-02-19T01:06:17.457Z,93.4
2023-02-19T01:07:16.941Z,93.9
2023-02-19T01:08:17.440Z,93.9
2023-02-19T01:09:16.957Z,93.9
2023-02-19T01:10:17.451Z,94.3
2023-02-19T01:11:16.959Z,94.3
2023-02-19T01:12:17.224Z,94.7
2023-02-19T01:13:16.740Z,95.0
2023-02-19T01:14:17.288Z,95.0
2023-02-19T01:15:16.855Z,94.9
2023-02-19T01:16:17.489Z,95.2
2023-02-19T01:17:17.033Z,95.0
2023-02-19T01:18:16.512Z,95.0
2023-02-19T01:19:17.054Z,95.0
2023-02-19T01:20:16.561Z,95.4
2023-02-19T01:21:17.080Z,95.5
2023-02-19T01:22:16.625Z,95.4
2023-02-19T01:23:17.140Z,95.2
2023-02-19T01:24:16.623Z,95.5
2023-02-19T01:25:17.096Z,95.6
2023-02-19T01:26:16.588Z,95.6
2023-02-19T01:27:17.042Z,95.6
2023-02-19T01:28:16.512Z,95.4
2023-02-19T01:29:17.020Z,95.4
2023-02-19T01:30:16.660Z,95.5
2023-02-19T01:31:17.394Z,95.4
2023-02-19T01:32:17.545Z,95.3
2023-02-19T01:33:17.083Z,95.5
2023-02-19T01:34:16.591Z,95.6
2023-02-19T01:35:17.136Z,95.5
2023-02-19T01:36:16.652Z,95.5
2023-02-19T01:37:17.154Z,95.6
2023-02-19T01:38:16.672Z,95.6
2023-02-19T01:39:17.162Z,95.8
2023-02-19T01:40:16.676Z,95.8
2023-02-19T01:41:17.166Z,95.6
2023-02-19T01:42:16.781Z,95.7
2023-02-19T01:43:17.300Z,95.8
2023-02-19T01:44:16.785Z,95.9
2023-02-19T01:45:17.317Z,95.9
2023-02-19T01:46:16.855Z,96.0
2023-02-19T01:47:17.390Z,95.9
2023-02-19T01:48:16.899Z,96.1
2023-02-19T01:49:17.397Z,96.0
2023-02-19T01:50:16.901Z,95.9
2023-02-19T01:51:17.440Z,95.9
2023-02-19T01:52:17.286Z,95.7
2023-02-19T01:53:16.783Z,96.0
2023-02-19T01:54:17.264Z,95.9
2023-02-19T01:55:16.761Z,96.0
2023-02-19T01:56:17.291Z,95.9
2023-02-19T01:57:16.809Z,95.9
2023-02-19T01:58:17.315Z,95.9
2023-02-19T01:59:16.865Z,96.0
2023-02-19T02:00:17.405Z,95.9
2023-02-19T02:01:16.872Z,95.8
2023-02-19T02:02:17.514Z,95.8
2023-02-19T02:03:17.072Z,95.8
2023-02-19T02:04:16.539Z,95.9
2023-02-19T02:05:17.058Z,96.0
2023-02-19T02:06:16.567Z,96.0
2023-02-19T02:07:17.077Z,95.9
2023-02-19T02:08:16.561Z,95.9
2023-02-19T02:09:17.091Z,96.0
2023-02-19T02:10:16.620Z,95.9
2023-02-19T02:11:17.146Z,96.0
2023-02-19T02:12:16.932Z,95.9
2023-02-19T02:13:17.493Z,95.9
2023-02-19T02:14:17.001Z,96.0
2023-02-19T02:15:16.529Z,95.9
2023-02-19T02:16:17.057Z,95.9
2023-02-19T02:17:16.626Z,95.7
2023-02-19T02:18:17.105Z,95.7
2023-02-19T02:19:16.585Z,95.7
2023-02-19T02:20:17.069Z,95.8
2023-02-19T02:21:16.580Z,95.9
2023-02-19T02:22:16.512Z,95.9
2023-02-19T02:23:17.013Z,95.9
2023-02-19T02:24:16.473Z,95.8
2023-02-19T02:25:16.963Z,95.8
2023-02-19T02:26:17.501Z,95.9
2023-02-19T02:27:16.981Z,96.0
2023-02-19T02:28:16.489Z,96.1
2023-02-19T02:29:16.964Z,96.3
2023-02-19T02:30:17.709Z,96.5
2023-02-19T02:31:17.533Z,96.6
2023-02-19T02:32:16.851Z,96.6
2023-02-19T02:33:17.382Z,96.6
2023-02-19T02:34:16.861Z,96.8
2023-02-19T02:35:17.338Z,96.8
2023-02-19T02:36:16.808Z,96.8
2023-02-19T02:37:17.302Z,97.0
2023-02-19T02:38:16.784Z,97.1
2023-02-19T02:39:17.283Z,97.2
2023-02-19T02:40:16.805Z,97.1
2023-02-19T02:41:17.337Z,97.2
2023-02-19T02:42:16.714Z,97.3
2023-02-19T02:43:17.224Z,97.3
2023-02-19T02:44:16.741Z,97.5
2023-02-19T02:45:17.280Z,97.5
2023-02-19T02:46:16.770Z,97.6
2023-02-19T02:47:17.275Z,97.6
2023-02-19T02:48:16.762Z,97.6
2023-02-19T02:49:17.242Z,97.6
2023-02-19T02:50:16.720Z,97.6
2023-02-19T02:51:17.256Z,97.6
2023-02-19T02:52:17.108Z,97.6
2023-02-19T02:53:16.624Z,97.3
2023-02-19T02:54:17.161Z,97.0
2023-02-19T02:55:16.676Z,96.9
2023-02-19T02:56:17.227Z,96.7
2023-02-19T02:57:16.724Z,96.5
2023-02-19T02:58:17.232Z,96.5
2023-02-19T02:59:16.749Z,96.3
2023-02-19T03:00:17.261Z,96.3
2023-02-19T03:01:16.839Z,96.2
2023-02-19T03:02:17.096Z,96.2
2023-02-19T03:03:16.584Z,96.0
2023-02-19T03:04:17.129Z,96.0
2023-02-19T03:05:16.684Z,95.9
2023-02-19T03:06:17.201Z,95.8
2023-02-19T03:07:16.710Z,95.8
2023-02-19T03:08:17.221Z,95.4
2023-02-19T03:09:16.725Z,95.3
2023-02-19T03:10:17.219Z,95.2
2023-02-19T03:11:16.719Z,95.2
2023-02-19T03:12:16.562Z,94.9
2023-02-19T03:13:17.082Z,94.9
2023-02-19T03:14:16.578Z,95.0
2023-02-19T03:15:17.107Z,94.9
2023-02-19T03:16:16.690Z,95.0
2023-02-19T03:17:17.249Z,94.9
2023-02-19T03:18:16.760Z,94.8
2023-02-19T03:19:17.277Z,94.7
2023-02-19T03:20:16.762Z,94.6
2023-02-19T03:21:17.266Z,94.6
2023-02-19T03:22:16.669Z,94.6
2023-02-19T03:23:17.153Z,94.7
2023-02-19T03:24:16.672Z,94.7
2023-02-19T03:25:17.152Z,94.7
2023-02-19T03:26:16.715Z,94.7
2023-02-19T03:27:17.249Z,94.6
2023-02-19T03:28:16.728Z,94.6
2023-02-19T03:29:17.197Z,94.5
2023-02-19T03:30:16.913Z,94.5
2023-02-19T03:31:17.564Z,94.5
2023-02-19T03:32:16.762Z,94.3
2023-02-19T03:33:17.311Z,94.5
2023-02-19T03:34:16.802Z,94.4
2023-02-19T03:35:17.294Z,94.5
2023-02-19T03:36:16.816Z,94.4
2023-02-19T03:37:17.317Z,94.4
2023-02-19T03:38:16.816Z,94.5
2023-02-19T03:39:17.303Z,94.4
2023-02-19T03:40:16.804Z,94.3
2023-02-19T03:41:17.276Z,94.3
2023-02-19T03:42:17.205Z,94.5
2023-02-19T03:43:16.820Z,94.5
2023-02-19T03:44:17.293Z,94.4
2023-02-19T03:45:16.808Z,94.6
2023-02-19T03:46:17.324Z,94.7
2023-02-19T03:47:16.823Z,94.6
2023-02-19T03:48:17.309Z,94.5
2023-02-19T03:49:16.799Z,94.4
2023-02-19T03:50:17.380Z,94.3
2023-02-19T03:51:16.873Z,94.3
2023-02-19T03:52:17.450Z,94.4
2023-02-19T03:53:16.952Z,94.3
2023-02-19T03:54:17.441Z,94.4
2023-02-19T03:55:16.929Z,94.3
2023-02-19T03:56:17.476Z,94.3
2023-02-19T03:57:16.984Z,94.3
2023-02-19T03:58:16.501Z,94.3
2023-02-19T03:59:17.000Z,94.4
2023-02-19T04:00:16.498Z,94.4
2023-02-19T04:01:16.991Z,94.4
2023-02-19T04:02:16.671Z,94.4
2023-02-19T04:03:17.193Z,94.3
2023-02-19T04:04:16.837Z,94.3
2023-02-19T04:05:17.393Z,94.4
2023-02-19T04:06:16.902Z,94.2
2023-02-19T04:07:17.424Z,94.3
2023-02-19T04:08:16.908Z,94.3
2023-02-19T04:09:17.409Z,94.3
2023-02-19T04:10:16.909Z,94.4
2023-02-19T04:11:17.433Z,94.4
2023-02-19T04:12:16.552Z,94.2
2023-02-19T04:13:17.040Z,94.2
2023-02-19T04:14:16.532Z,93.9
2023-02-19T04:15:17.030Z,93.9
2023-02-19T04:16:16.598Z,94.0
2023-02-19T04:17:17.094Z,94.0
2023-02-19T04:18:16.596Z,94.0
2023-02-19T04:19:17.119Z,93.9
2023-02-19T04:20:16.619Z,93.9
2023-02-19T04:21:17.123Z,93.8
2023-02-19T04:22:17.470Z,93.9
2023-02-19T04:23:17.003Z,93.7
2023-02-19T04:24:16.475Z,93.8
2023-02-19T04:25:17.001Z,93.8
2023-02-19T04:26:16.519Z,93.9
2023-02-19T04:27:17.157Z,93.8
2023-02-19T04:28:16.722Z,93.9
2023-02-19T04:29:17.275Z,93.6
2023-02-19T04:30:16.903Z,93.8
2023-02-19T04:31:17.667Z,93.6
2023-02-19T04:32:16.800Z,93.4
2023-02-19T04:33:17.270Z,93.4
2023-02-19T04:34:16.784Z,93.3
2023-02-19T04:35:17.327Z,93.3
2023-02-19T04:36:16.838Z,93.3
2023-02-19T04:37:17.347Z,93.3
2023-02-19T04:38:16.892Z,93.3
2023-02-19T04:39:17.387Z,93.1
2023-02-19T04:40:16.871Z,93.1
2023-02-19T04:41:17.381Z,93.0
2023-02-19T04:42:17.307Z,93.1
2023-02-19T04:43:16.789Z,93.1
2023-02-19T04:44:17.262Z,93.0
2023-02-19T04:45:16.740Z,93.0
2023-02-19T04:46:17.300Z,92.9
2023-02-19T04:47:16.793Z,92.9
2023-02-19T04:48:17.310Z,93.0
2023-02-19T04:49:16.805Z,93.1
2023-02-19T04:50:17.295Z,93.1
2023-02-19T04:51:16.817Z,92.9
2023-02-19T04:52:16.569Z,92.7
2023-02-19T04:53:17.046Z,92.7
2023-02-19T04:54:16.566Z,92.8
2023-02-19T04:55:17.071Z,92.8
2023-02-19T04:56:16.558Z,92.9
2023-02-19T04:57:17.065Z,92.7
2023-02-19T04:58:16.535Z,92.6
2023-02-19T04:59:17.019Z,92.6
2023-02-19T05:00:16.504Z,92.6
2023-02-19T05:01:17.041Z,92.8
2023-02-19T05:02:17.265Z,92.6
2023-02-19T05:03:16.743Z,92.6
2023-02-19T05:04:17.376Z,92.6
2023-02-19T05:05:16.910Z,92.6
2023-02-19T05:06:17.423Z,92.6
2023-02-19T05:07:16.913Z,92.6
2023-02-19T05:08:17.397Z,92.5
2023-02-19T05:09:16.879Z,92.5
2023-02-19T05:10:17.402Z,92.4
2023-02-19T05:11:16.898Z,92.4
2023-02-19T05:12:17.044Z,92.5
2023-02-19T05:13:16.580Z,92.5
2023-02-19T05:14:17.066Z,92.6
2023-02-19T05:15:16.598Z,92.6
2023-02-19T05:16:17.079Z,92.5
2023-02-19T05:17:16.589Z,92.4
2023-02-19T05:18:17.131Z,92.4
2023-02-19T05:19:16.662Z,92.4
2023-02-19T05:20:17.170Z,92.4
2023-02-19T05:21:16.692Z,92.4
2023-02-19T05:22:17.366Z,92.5
2023-02-19T05:23:16.860Z,92.3
2023-02-19T05:24:17.363Z,92.2
2023-02-19T05:25:16.847Z,92.2
2023-02-19T05:26:17.354Z,92.1
2023-02-19T05:27:16.817Z,92.2
2023-02-19T05:28:17.343Z,92.3
2023-02-19T05:29:16.850Z,92.2
2023-02-19T05:30:17.476Z,92.2
2023-02-19T05:31:17.312Z,92.1
2023-02-19T05:32:17.492Z,92.0
2023-02-19T05:33:17.038Z,92.0
2023-02-19T05:34:16.558Z,92.0
2023-02-19T05:35:17.060Z,92.1
2023-02-19T05:36:16.555Z,92.1
2023-02-19T05:37:17.044Z,92.1
2023-02-19T05:38:16.568Z,92.0
2023-02-19T05:39:17.048Z,92.1
2023-02-19T05:40:16.576Z,92.1
2023-02-19T05:41:17.111Z,92.1
2023-02-19T05:42:16.699Z,92.0
2023-02-19T05:43:17.184Z,91.9
2023-02-19T05:44:16.645Z,91.9
2023-02-19T05:45:17.111Z,91.8
2023-02-19T05:46:16.742Z,91.9
2023-02-19T05:47:17.330Z,91.9
2023-02-19T05:48:16.835Z,91.7
2023-02-19T05:49:17.699Z,91.9
2023-02-19T05:50:17.313Z,91.9
2023-02-19T05:51:16.818Z,91.7
2023-02-19T05:52:16.702Z,91.7
2023-02-19T05:53:17.180Z,91.7
2023-02-19T05:54:16.695Z,91.5
2023-02-19T05:55:17.227Z,91.4
2023-02-19T05:56:16.716Z,91.4
2023-02-19T05:57:17.178Z,91.6
2023-02-19T05:58:16.661Z,91.5
2023-02-19T05:59:17.150Z,91.5
2023-02-19T06:00:16.629Z,91.5
2023-02-19T06:01:17.149Z,91.5
2023-02-19T06:02:16.783Z,91.5
2023-02-19T06:03:17.313Z,91.6
2023-02-19T06:04:16.846Z,91.6
2023-02-19T06:05:17.349Z,91.7
2023-02-19T06:06:16.847Z,91.6
2023-02-19T06:07:17.341Z,91.4
2023-02-19T06:08:16.859Z,91.3
2023-02-19T06:09:17.313Z,91.5
2023-02-19T06:10:16.790Z,91.4
2023-02-19T06:11:17.283Z,91.4
2023-02-19T06:12:16.960Z,91.5
2023-02-19T06:13:18.029Z,91.6
2023-02-19T06:14:16.581Z,91.4
2023-02-19T06:15:17.116Z,91.5
2023-02-19T06:16:16.666Z,91.4
2023-02-19T06:17:17.205Z,91.5
2023-02-19T06:18:16.751Z,91.5
2023-02-19T06:19:17.244Z,91.4
2023-02-19T06:20:16.761Z,91.2
2023-02-19T06:21:17.294Z,91.1
2023-02-19T06:22:16.698Z,91.0
2023-02-19T06:23:17.188Z,91.1
2023-02-19T06:24:16.678Z,91.1
2023-02-19T06:25:17.181Z,91.2
2023-02-19T06:26:16.688Z,91.2
2023-02-19T06:27:17.172Z,91.4
2023-02-19T06:28:16.651Z,91.5
2023-02-19T06:29:17.153Z,91.5
2023-02-19T06:30:16.718Z,91.5
2023-02-19T06:31:17.438Z,91.6
2023-02-19T06:32:17.364Z,91.6
2023-02-19T06:33:16.968Z,91.9
2023-02-19T06:34:16.492Z,91.6
2023-02-19T06:35:16.990Z,91.4
2023-02-19T06:36:16.508Z,91.5
2023-02-19T06:37:16.980Z,91.3
2023-02-19T06:38:16.476Z,91.5
2023-02-19T06:39:16.994Z,91.5
2023-02-19T06:40:16.471Z,91.5
2023-02-19T06:41:16.964Z,91.6
2023-02-19T06:42:16.629Z,91.7
2023-02-19T06:43:17.169Z,91.6
2023-02-19T06:44:16.688Z,91.6
2023-02-19T06:45:17.183Z,91.3
2023-02-19T06:46:16.791Z,91.2
2023-02-19T06:47:17.355Z,91.2
2023-02-19T06:48:16.842Z,91.2
2023-02-19T06:49:17.329Z,91.1
2023-02-19T06:50:16.816Z,91.1
2023-02-19T06:51:17.326Z,91.2
2023-02-19T06:52:17.184Z,91.3
2023-02-19T06:53:16.675Z,91.3
2023-02-19T06:54:17.156Z,91.3
2023-02-19T06:55:16.634Z,91.3
2023-02-19T06:56:17.129Z,91.3
2023-02-19T06:57:16.635Z,91.4
2023-02-19T06:58:17.151Z,91.4
2023-02-19T06:59:16.647Z,91.4
2023-02-19T07:00:17.136Z,91.5
2023-02-19T07:01:16.695Z,91.6
2023-02-19T07:02:17.161Z,91.6
2023-02-19T07:03:16.639Z,91.5
2023-02-19T07:04:17.276Z,91.6
2023-02-19T07:05:16.821Z,91.5
2023-02-19T07:06:17.334Z,91.4
2023-02-19T07:07:16.838Z,91.1
2023-02-19T07:08:17.473Z,91.2
2023-02-19T07:09:17.047Z,91.3
2023-02-19T07:10:16.552Z,91.3
2023-02-19T07:11:17.105Z,91.3
2023-02-19T07:12:16.697Z,91.3
2023-02-19T07:13:17.227Z,91.3
2023-02-19T07:14:16.730Z,91.2
2023-02-19T07:15:17.202Z,91.2
2023-02-19T07:16:16.765Z,91.0
2023-02-19T07:17:17.266Z,91.1
2023-02-19T07:18:16.772Z,91.0
2023-02-19T07:19:17.273Z,90.7
2023-02-19T07:20:16.766Z,90.5
2023-02-19T07:21:17.262Z,90.4
2023-02-19T07:22:17.237Z,90.4
2023-02-19T07:23:16.705Z,90.5
2023-02-19T07:24:17.203Z,90.4
2023-02-19T07:25:16.718Z,90.5
2023-02-19T07:26:17.273Z,90.4
2023-02-19T07:27:16.802Z,90.2
2023-02-19T07:28:17.311Z,90.2
2023-02-19T07:29:16.788Z,90.2
2023-02-19T07:30:17.385Z,90.2
2023-02-19T07:31:17.104Z,90.0
2023-02-19T07:32:16.733Z,90.0
2023-02-19T07:33:17.264Z,89.8
2023-02-19T07:34:16.804Z,89.7
2023-02-19T07:35:17.275Z,89.9
2023-02-19T07:36:16.788Z,89.9
2023-02-19T07:37:17.302Z,89.7
2023-02-19T07:38:16.841Z,89.9
2023-02-19T07:39:17.355Z,89.7
2023-02-19T07:40:16.860Z,89.7
2023-02-19T07:41:17.366Z,89.9
2023-02-19T07:42:16.830Z,89.7
2023-02-19T07:43:17.318Z,89.5
2023-02-19T07:44:16.885Z,89.4
2023-02-19T07:45:17.370Z,89.4
2023-02-19T07:46:16.886Z,89.4
2023-02-19T07:47:17.387Z,89.5
2023-02-19T07:48:16.945Z,89.5
2023-02-19T07:49:17.466Z,89.5
2023-02-19T07:50:16.954Z,89.5
2023-02-19T07:51:17.510Z,89.5
2023-02-19T07:52:17.288Z,89.6
2023-02-19T07:53:16.791Z,89.3
2023-02-19T07:54:17.284Z,89.5
2023-02-19T07:55:16.772Z,89.7
2023-02-19T07:56:17.271Z,89.7
2023-02-19T07:57:16.747Z,89.8
2023-02-19T07:58:17.300Z,89.9
2023-02-19T07:59:16.776Z,89.9
2023-02-19T08:00:17.264Z,90.1
2023-02-19T08:01:16.848Z,90.0
2023-02-19T08:02:17.191Z,89.8
2023-02-19T08:03:16.847Z,89.5
2023-02-19T08:04:17.445Z,89.6
2023-02-19T08:05:16.945Z,89.6
2023-02-19T08:06:17.470Z,89.5
2023-02-19T08:07:16.993Z,89.6
2023-02-19T08:08:16.494Z,89.8
2023-02-19T08:09:16.962Z,89.7
2023-02-19T08:10:17.474Z,89.9
2023-02-19T08:11:16.958Z,89.9
2023-02-19T08:12:16.598Z,89.7
2023-02-19T08:13:17.132Z,89.6
2023-02-19T08:14:16.632Z,89.7
2023-02-19T08:15:17.123Z,89.7
2023-02-19T08:16:41.053Z,89.8
2023-02-19T08:17:17.367Z,89.5
2023-02-19T08:18:16.880Z,89.6
2023-02-19T08:19:17.370Z,89.5
2023-02-19T08:20:16.855Z,89.5
2023-02-19T08:21:17.399Z,89.4
2023-02-19T08:22:17.058Z,89.3
2023-02-19T08:23:16.603Z,89.4
2023-02-19T08:24:17.098Z,89.0
2023-02-19T08:25:16.616Z,89.2
2023-02-19T08:26:17.150Z,89.0
2023-02-19T08:27:16.640Z,89.0
2023-02-19T08:28:17.131Z,88.8
2023-02-19T08:29:16.603Z,88.8
2023-02-19T08:30:17.202Z,88.8
2023-02-19T08:31:16.922Z,88.7
2023-02-19T08:32:16.715Z,88.7
2023-02-19T08:33:17.237Z,88.7
2023-02-19T08:34:16.777Z,88.7
2023-02-19T08:35:17.269Z,88.5
2023-02-19T08:36:16.754Z,88.6
2023-02-19T08:37:17.232Z,88.7
2023-02-19T08:38:16.730Z,88.5
2023-02-19T08:39:21.013Z,88.4
2023-02-19T08:40:16.580Z,88.2
2023-02-19T08:41:17.176Z,88.2
2023-02-19T08:42:16.576Z,88.3
2023-02-19T08:43:17.068Z,88.1
2023-02-19T08:44:16.608Z,88.1
2023-02-19T08:45:17.103Z,87.6
2023-02-19T08:46:16.702Z,87.9
2023-02-19T08:47:17.232Z,88.0
2023-02-19T08:48:16.730Z,87.9
2023-02-19T08:49:17.227Z,87.8
2023-02-19T08:50:16.732Z,87.8
2023-02-19T08:51:17.231Z,87.9
2023-02-19T08:52:16.667Z,88.2
2023-02-19T08:53:17.137Z,88.0
2023-02-19T08:54:16.661Z,87.9
2023-02-19T08:55:17.342Z,88.0
2023-02-19T08:56:16.902Z,88.0
2023-02-19T08:57:17.376Z,87.8
2023-02-19T08:58:16.869Z,88.0
2023-02-19T08:59:17.373Z,87.6
2023-02-19T09:00:16.869Z,87.8
2023-02-19T09:01:17.478Z,87.8
2023-02-19T09:02:16.905Z,87.7
2023-02-19T09:03:17.401Z,87.6
2023-02-19T09:04:17.021Z,87.5
2023-02-19T09:05:16.566Z,87.8
2023-02-19T09:06:17.082Z,87.6
2023-02-19T09:07:16.569Z,87.6
2023-02-19T09:08:17.060Z,87.3
2023-02-19T09:09:16.559Z,87.2
2023-02-19T09:10:17.057Z,87.4
2023-02-19T09:11:16.557Z,87.4
2023-02-19T09:12:17.004Z,87.2
2023-02-19T09:13:16.540Z,87.4
2023-02-19T09:14:17.029Z,87.2
2023-02-19T09:15:16.551Z,87.1
2023-02-19T09:16:17.069Z,87.1
2023-02-19T09:17:16.583Z,87.1
2023-02-19T09:18:17.078Z,87.2
2023-02-19T09:19:16.546Z,87.5
2023-02-19T09:20:17.010Z,87.5
2023-02-19T09:21:16.523Z,87.4
2023-02-19T09:22:17.122Z,87.4
2023-02-19T09:23:16.565Z,87.4
2023-02-19T09:24:17.054Z,87.5
2023-02-19T09:25:16.632Z,87.4
2023-02-19T09:26:17.247Z,87.5
2023-02-19T09:27:16.733Z,87.7
2023-02-19T09:28:17.241Z,87.6
2023-02-19T09:29:16.748Z,87.7
2023-02-19T09:30:17.309Z,87.8
2023-02-19T09:31:17.410Z,87.9
2023-02-19T09:32:19.503Z,88.0
2023-02-19T09:33:17.012Z,88.1
2023-02-19T09:34:16.493Z,88.0
2023-02-19T09:35:17.034Z,88.1
2023-02-19T09:36:16.546Z,88.1
2023-02-19T09:37:17.043Z,88.0
2023-02-19T09:38:16.550Z,88.2
2023-02-19T09:39:17.054Z,88.3
2023-02-19T09:40:16.589Z,88.3
2023-02-19T09:41:17.098Z,88.2
2023-02-19T09:42:17.447Z,88.0
2023-02-19T09:43:16.955Z,88.1
2023-02-19T09:44:16.456Z,88.1
2023-02-19T09:45:16.957Z,88.1
2023-02-19T09:46:17.690Z,87.9
2023-02-19T09:47:17.205Z,88.0
2023-02-19T09:48:16.710Z,88.1
2023-02-19T09:49:17.190Z,88.2
2023-02-19T09:50:16.710Z,88.3
2023-02-19T09:51:17.384Z,88.3
2023-02-19T09:52:16.710Z,88.8
2023-02-19T09:53:17.207Z,88.8
2023-02-19T09:54:16.719Z,89.0
2023-02-19T09:55:17.423Z,89.1
2023-02-19T09:56:17.035Z,89.1
2023-02-19T09:57:16.916Z,88.9
2023-02-19T09:58:16.733Z,89.2
2023-02-19T09:59:17.213Z,89.1
2023-02-19T10:00:16.757Z,89.0
2023-02-19T10:01:17.354Z,88.8
2023-02-19T10:02:16.582Z,88.7
2023-02-19T10:03:17.100Z,88.7
2023-02-19T10:04:16.577Z,88.6
2023-02-19T10:05:17.158Z,88.8
2023-02-19T10:06:16.646Z,88.8
2023-02-19T10:07:17.182Z,88.8
2023-02-19T10:08:16.658Z,88.9
2023-02-19T10:09:17.164Z,89.1
2023-02-19T10:10:16.659Z,89.2
2023-02-19T10:11:17.182Z,89.4
2023-02-19T10:12:16.727Z,89.5
2023-02-19T10:13:17.224Z,89.6
2023-02-19T10:14:16.739Z,89.6
2023-02-19T10:15:17.245Z,90.0
2023-02-19T10:16:16.790Z,90.0
2023-02-19T10:17:17.296Z,89.9
2023-02-19T10:18:16.788Z,90.0
2023-02-19T10:19:17.295Z,89.9
2023-02-19T10:20:16.818Z,89.9
2023-02-19T10:21:17.308Z,89.8
2023-02-19T10:22:17.001Z,89.9
2023-02-19T10:23:16.479Z,89.8
2023-02-19T10:24:16.972Z,89.6
2023-02-19T10:25:16.505Z,89.4
2023-02-19T10:26:17.016Z,89.5
2023-02-19T10:27:16.510Z,89.4
2023-02-19T10:28:16.999Z,89.3
2023-02-19T10:29:16.487Z,89.3
2023-02-19T10:30:17.057Z,89.2
2023-02-19T10:31:20.461Z,88.9
2023-02-19T10:32:17.222Z,88.9
2023-02-19T10:33:16.815Z,88.9
2023-02-19T10:34:17.317Z,88.8
2023-02-19T10:35:16.823Z,88.5
2023-02-19T10:36:17.327Z,88.4
2023-02-19T10:37:16.837Z,88.3
2023-02-19T10:38:17.333Z,88.3
2023-02-19T10:39:16.856Z,88.3
2023-02-19T10:40:17.377Z,88.3
2023-02-19T10:41:17.051Z,88.6
2023-02-19T10:42:17.230Z,88.0
2023-02-19T10:43:16.711Z,87.7
2023-02-19T10:44:17.199Z,87.5
2023-02-19T10:45:16.679Z,87.6
2023-02-19T10:46:17.304Z,87.5
2023-02-19T10:47:16.808Z,87.5
2023-02-19T10:48:17.356Z,87.7
2023-02-19T10:49:16.824Z,87.7
2023-02-19T10:50:17.291Z,88.0
2023-02-19T10:51:16.788Z,88.9
2023-02-19T10:52:17.359Z,89.3
2023-02-19T10:53:16.840Z,90.4
2023-02-19T10:54:17.352Z,90.8
2023-02-19T10:55:16.898Z,91.1
2023-02-19T10:56:17.442Z,91.2
2023-02-19T10:57:16.958Z,92.2
2023-02-19T10:58:17.487Z,92.3
2023-02-19T10:59:16.979Z,92.5
2023-02-19T11:00:16.493Z,92.8
2023-02-19T11:01:16.973Z,92.6
2023-02-19T11:02:17.440Z,92.5
2023-02-19T11:03:16.917Z,92.5
2023-02-19T11:04:17.603Z,93.0
2023-02-19T11:05:17.183Z,92.7
2023-02-19T11:06:16.722Z,92.4
2023-02-19T11:07:17.281Z,92.4
2023-02-19T11:08:16.799Z,92.2
2023-02-19T11:09:17.294Z,92.2
2023-02-19T11:10:17.007Z,92.2
2023-02-19T11:11:16.500Z,92.0
2023-02-19T11:12:16.918Z,92.0
2023-02-19T11:13:17.457Z,91.8
2023-02-19T11:14:16.961Z,92.2
2023-02-19T11:15:16.453Z,92.0
2023-02-19T11:16:17.937Z,91.7
2023-02-19T11:17:16.494Z,92.0
2023-02-19T11:18:16.975Z,91.7
2023-02-19T11:19:16.483Z,91.7
2023-02-19T11:20:17.009Z,91.8
2023-02-19T11:21:16.562Z,91.7
2023-02-19T11:22:17.467Z,91.7
2023-02-19T11:23:16.961Z,91.6
2023-02-19T11:24:16.521Z,91.3
2023-02-19T11:25:17.153Z,91.6
2023-02-19T11:26:16.684Z,91.4
2023-02-19T11:27:17.173Z,91.3
2023-02-19T11:28:16.706Z,91.2
2023-02-19T11:29:17.194Z,91.2
2023-02-19T11:30:16.918Z,90.9
2023-02-19T11:31:17.553Z,90.9
2023-02-19T11:32:17.485Z,91.1
2023-02-19T11:33:17.114Z,91.1
2023-02-19T11:34:16.613Z,91.0
2023-02-19T11:35:17.114Z,90.7
2023-02-19T11:36:16.623Z,90.8
2023-02-19T11:37:17.135Z,90.5
2023-02-19T11:38:16.682Z,90.6
2023-02-19T11:39:17.196Z,90.3
2023-02-19T11:40:16.738Z,90.7
2023-02-19T11:41:17.260Z,90.8
2023-02-19T11:42:16.668Z,90.6
2023-02-19T11:43:17.186Z,90.5
2023-02-19T11:44:16.677Z,90.3
2023-02-19T11:45:17.172Z,90.2
2023-02-19T11:46:16.712Z,90.5
2023-02-19T11:47:17.207Z,90.2
2023-02-19T11:48:16.692Z,90.4
2023-02-19T11:49:17.192Z,90.3
2023-02-19T11:50:16.715Z,90.5
2023-02-19T11:51:17.196Z,90.2
2023-02-19T11:52:16.906Z,90.3
2023-02-19T11:53:17.438Z,90.3
2023-02-19T11:54:16.917Z,90.2
2023-02-19T11:55:17.413Z,90.1
2023-02-19T11:56:16.916Z,89.6
2023-02-19T11:57:17.428Z,89.1
2023-02-19T11:58:16.902Z,89.4
2023-02-19T11:59:17.410Z,88.9
2023-02-19T12:00:16.927Z,88.8
2023-02-19T12:01:17.567Z,88.8
2023-02-19T12:02:17.019Z,89.2
2023-02-19T12:03:16.554Z,89.1
2023-02-19T12:04:17.062Z,89.3
2023-02-19T12:05:16.679Z,89.3
2023-02-19T12:06:17.205Z,89.1
2023-02-19T12:07:17.176Z,89.1
2023-02-19T12:08:16.658Z,88.9
2023-02-19T12:09:17.184Z,88.8
2023-02-19T12:10:16.700Z,88.9
2023-02-19T12:11:17.207Z,89.0
2023-02-19T12:12:16.867Z,89.2
2023-02-19T12:13:17.372Z,89.3
2023-02-19T12:14:16.844Z,89.2
2023-02-19T12:15:17.337Z,89.2
2023-02-19T12:16:16.926Z,89.1
2023-02-19T12:17:17.444Z,89.3
2023-02-19T12:18:16.951Z,89.6
2023-02-19T12:19:17.449Z,89.6
2023-02-19T12:20:16.956Z,89.4
2023-02-19T12:21:17.542Z,89.8
2023-02-19T12:22:17.180Z,90.2
2023-02-19T12:23:16.700Z,90.7
2023-02-19T12:24:17.231Z,90.7
2023-02-19T12:25:16.763Z,90.5
2023-02-19T12:26:17.239Z,90.8
2023-02-19T12:27:16.769Z,91.0
2023-02-19T12:28:17.247Z,91.0
2023-02-19T12:29:16.751Z,91.0
2023-02-19T12:30:17.403Z,90.7
2023-02-19T12:31:17.297Z,91.0
2023-02-19T12:32:16.518Z,91.1
2023-02-19T12:33:17.008Z,91.4
2023-02-19T12:34:16.509Z,91.5
2023-02-19T12:35:17.056Z,91.0
2023-02-19T12:36:16.570Z,91.1
2023-02-19T12:37:17.116Z,91.6
2023-02-19T12:38:16.631Z,91.9
2023-02-19T12:39:17.141Z,92.2
2023-02-19T12:40:16.637Z,92.1
2023-02-19T12:41:17.315Z,92.3
2023-02-19T12:42:16.787Z,92.2
2023-02-19T12:43:17.285Z,92.3
2023-02-19T12:44:16.787Z,92.2
2023-02-19T12:45:17.275Z,91.7
2023-02-19T12:46:16.880Z,91.6
2023-02-19T12:47:17.466Z,91.8
2023-02-19T12:48:16.971Z,92.0
2023-02-19T12:49:16.475Z,91.6
2023-02-19T12:50:16.996Z,91.5
2023-02-19T12:51:16.476Z,91.4
2023-02-19T12:52:17.302Z,91.2
2023-02-19T12:53:16.972Z,91.1
2023-02-19T12:54:16.462Z,91.2
2023-02-19T12:55:17.324Z,91.3
2023-02-19T12:56:17.081Z,91.3
2023-02-19T12:57:16.567Z,91.3
2023-02-19T12:58:17.037Z,91.2
2023-02-19T12:59:16.562Z,91.6
2023-02-19T13:00:17.026Z,91.2
2023-02-19T13:01:16.602Z,91.5
2023-02-19T13:02:17.311Z,91.5
2023-02-19T13:03:16.820Z,91.4
2023-02-19T13:04:17.334Z,91.7
2023-02-19T13:05:16.855Z,91.7
2023-02-19T13:06:18.321Z,91.8
2023-02-19T13:07:16.998Z,91.8
2023-02-19T13:08:16.470Z,91.7
2023-02-19T13:09:16.954Z,91.6
2023-02-19T13:10:17.523Z,91.6
2023-02-19T13:11:17.048Z,91.7
2023-02-19T13:12:17.525Z,91.3
2023-02-19T13:13:16.994Z,91.1
2023-02-19T13:14:16.488Z,91.1
2023-02-19T13:15:17.065Z,91.4
2023-02-19T13:16:19.437Z,91.3
2023-02-19T13:17:17.052Z,91.0
2023-02-19T13:18:16.570Z,91.2